createdAt,value
2018-07-16T00:00:26.835Z,9.20
2018-07-16T00:02:54.817Z,9.35
2018-07-16T00:05:23.041Z,8.10
2018-07-16T00:07:51.000Z,8.65
2018-07-16T00:10:19.168Z,9.33
2018-07-16T00:12:47.491Z,8.00
2018-07-16T00:15:15.510Z,9.30
2018-07-16T00:17:43.632Z,9.90
2018-07-16T00:20:11.606Z,7.80
2018-07-16T00:22:39.776Z,8.70
2018-07-16T00:25:07.948Z,8.85
2018-07-16T00:27:36.224Z,8.25
2018-07-16T00:30:04.408Z,7.83
2018-07-16T00:32:32.944Z,10.80
2018-07-16T00:35:01.208Z,8.93
2018-07-16T00:37:29.135Z,9.75
2018-07-16T00:39:57.336Z,7.92
2018-07-16T00:42:26.196Z,8.73
2018-07-16T00:44:54.472Z,9.20
2018-07-16T00:47:22.687Z,9.08
2018-07-16T00:49:50.598Z,7.53
2018-07-16T00:52:18.544Z,9.28
2018-07-16T00:54:46.768Z,8.78
2018-07-16T00:57:14.684Z,8.10
2018-07-16T00:59:43.107Z,8.00
2018-07-16T01:02:11.311Z,9.38
2018-07-16T01:04:39.305Z,8.05
2018-07-16T01:07:07.262Z,9.38
2018-07-16T01:09:36.025Z,8.17
2018-07-16T01:12:04.039Z,7.92
2018-07-16T01:14:31.961Z,7.30
2018-07-16T01:16:59.914Z,9.38
2018-07-16T01:19:28.196Z,8.50
2018-07-16T01:21:56.524Z,8.63
2018-07-16T01:24:24.827Z,8.38
2018-07-16T01:26:52.752Z,11.65
2018-07-16T01:29:20.704Z,12.82
2018-07-16T01:31:48.584Z,9.93
2018-07-16T01:34:16.508Z,8.75
2018-07-16T01:36:44.589Z,8.30
2018-07-16T01:39:12.876Z,10.40
2018-07-16T01:41:40.866Z,10.03
2018-07-16T01:44:09.936Z,8.13
2018-07-16T01:46:37.922Z,8.60
2018-07-16T01:49:06.122Z,9.13
2018-07-16T01:51:35.010Z,11.50
2018-07-16T01:54:02.932Z,9.43
2018-07-16T01:56:31.119Z,9.10
2018-07-16T01:58:59.145Z,9.30
2018-07-16T02:01:27.433Z,10.18
2018-07-16T02:03:55.717Z,9.25
2018-07-16T02:06:23.932Z,9.70
2018-07-16T02:08:52.132Z,9.48
2018-07-16T02:11:20.433Z,9.90
2018-07-16T02:13:49.169Z,9.63
2018-07-16T02:16:17.443Z,10.45
2018-07-16T02:18:45.685Z,10.48
2018-07-16T02:21:13.895Z,8.58
2018-07-16T02:23:41.889Z,8.70
2018-07-16T02:26:09.777Z,10.98
2018-07-16T02:28:38.512Z,9.58
2018-07-16T02:31:06.777Z,9.00
2018-07-16T02:33:34.973Z,9.55
2018-07-16T02:36:03.196Z,10.32
2018-07-16T02:38:31.215Z,11.28
2018-07-16T02:40:59.176Z,11.85
2018-07-16T02:43:28.072Z,12.77
2018-07-16T02:45:56.328Z,10.20
2018-07-16T02:48:24.921Z,9.28
2018-07-16T02:50:52.900Z,9.55
2018-07-16T02:53:21.079Z,10.90
2018-07-16T02:55:49.273Z,11.88
2018-07-16T02:58:17.256Z,11.43
2018-07-16T03:00:45.460Z,12.53
2018-07-16T03:03:13.746Z,10.35
2018-07-16T03:05:41.949Z,9.95
2018-07-16T03:08:09.898Z,10.05
2018-07-16T03:10:38.204Z,11.65
2018-07-16T03:13:06.606Z,9.23
2018-07-16T03:15:34.578Z,8.13
2018-07-16T03:18:02.893Z,10.40
2018-07-16T03:20:30.761Z,11.08
2018-07-16T03:22:59.280Z,11.45
2018-07-16T03:25:27.858Z,11.03
2018-07-16T03:27:56.417Z,10.20
2018-07-16T03:30:25.056Z,10.45
2018-07-16T03:32:53.282Z,9.58
2018-07-16T03:35:21.236Z,10.63
2018-07-16T03:37:49.205Z,10.20
2018-07-16T03:40:17.204Z,9.28
2018-07-16T03:42:45.080Z,10.50
2018-07-16T03:45:13.082Z,13.85
2018-07-16T03:47:41.331Z,9.07
2018-07-16T03:50:09.264Z,10.25
2018-07-16T03:52:37.175Z,10.10
2018-07-16T03:55:05.140Z,9.83
2018-07-16T03:57:33.408Z,10.70
2018-07-16T04:00:01.351Z,10.40
2018-07-16T04:02:29.314Z,9.33
2018-07-16T04:04:57.593Z,10.48
2018-07-16T04:07:25.905Z,11.68
2018-07-16T04:09:53.861Z,12.65
2018-07-16T04:12:22.196Z,11.85
2018-07-16T04:14:50.172Z,11.63
2018-07-16T04:17:18.457Z,10.40
2018-07-16T04:19:46.348Z,9.13
2018-07-16T04:22:14.544Z,9.48
2018-07-16T04:24:42.821Z,9.78
2018-07-16T04:27:11.036Z,10.85
2018-07-16T04:29:39.580Z,12.65
2018-07-16T04:32:07.859Z,14.25
2018-07-16T04:34:36.745Z,9.70
2018-07-16T04:37:04.674Z,12.45
2018-07-16T04:39:32.644Z,9.60
2018-07-16T04:42:00.716Z,9.93
2018-07-16T04:44:28.680Z,11.00
2018-07-16T04:46:56.697Z,10.50
2018-07-16T04:49:25.049Z,15.55
2018-07-16T04:51:53.965Z,9.57
2018-07-16T04:54:22.215Z,12.47
2018-07-16T04:56:50.203Z,8.85
2018-07-16T04:59:18.139Z,14.20
2018-07-16T05:01:46.172Z,10.82
2018-07-16T05:04:14.160Z,8.65
2018-07-16T05:06:42.505Z,9.40
2018-07-16T05:09:10.673Z,8.98
2018-07-16T05:11:39.152Z,9.10
2018-07-16T05:14:07.538Z,8.18
2018-07-16T05:16:35.470Z,7.80
2018-07-16T05:19:03.677Z,10.32
2018-07-16T05:21:32.260Z,9.58
2018-07-16T05:24:00.626Z,11.30
2018-07-16T05:26:29.784Z,8.43
2018-07-16T05:28:58.017Z,9.60
2018-07-16T05:31:26.095Z,10.15
2018-07-16T05:33:53.980Z,7.90
2018-07-16T05:36:21.975Z,7.20
2018-07-16T05:38:50.490Z,6.53
2018-07-16T05:41:18.406Z,8.00
2018-07-16T05:43:46.322Z,6.80
2018-07-16T05:46:14.280Z,7.37
2018-07-16T05:48:42.238Z,9.05
2018-07-16T05:51:10.215Z,8.43
2018-07-16T05:53:38.705Z,6.80
2018-07-16T05:56:06.660Z,7.97
2018-07-16T05:58:35.558Z,7.62
2018-07-16T06:01:03.877Z,9.20
2018-07-16T06:03:32.048Z,9.98
2018-07-16T06:06:00.126Z,9.23
2018-07-16T06:08:28.540Z,9.35
2018-07-16T06:10:56.478Z,8.00
2018-07-16T06:13:24.624Z,8.25
2018-07-16T06:15:52.911Z,8.85
2018-07-16T06:18:21.077Z,9.55
2018-07-16T06:20:49.064Z,10.45
2018-07-16T06:23:17.027Z,8.55
2018-07-16T06:25:45.015Z,10.83
2018-07-16T06:28:12.958Z,7.78
2018-07-16T06:30:41.151Z,9.13
2018-07-16T06:33:09.629Z,8.50
2018-07-16T06:35:38.317Z,8.88
2018-07-16T06:38:06.581Z,10.32
2018-07-16T06:40:34.837Z,8.00
2018-07-16T06:43:02.917Z,6.50
2018-07-16T06:45:31.404Z,9.13
2018-07-16T06:47:59.597Z,6.72
2018-07-16T06:50:27.556Z,9.25
2018-07-16T06:52:55.845Z,18.15
2018-07-16T06:55:24.638Z,8.50
2018-07-16T06:57:53.114Z,8.90
2018-07-16T07:00:21.296Z,10.17
2018-07-16T07:02:49.541Z,9.07
2018-07-16T07:05:18.380Z,12.00
2018-07-16T07:07:50.754Z,10.40
2018-07-16T07:10:20.165Z,9.13
2018-07-16T07:12:48.723Z,7.60
2018-07-16T07:15:16.638Z,7.20
2018-07-16T07:17:44.865Z,8.83
2018-07-16T07:20:12.844Z,11.28
2018-07-16T07:22:41.106Z,7.53
2018-07-16T07:25:09.314Z,9.00
2018-07-16T07:27:37.864Z,7.72
2018-07-16T07:30:05.776Z,7.58
2018-07-16T07:32:33.796Z,8.08
2018-07-16T07:35:01.840Z,8.10
2018-07-16T07:37:29.745Z,7.00
2018-07-16T07:39:58.584Z,5.75
2018-07-16T07:42:26.521Z,7.08
2018-07-16T07:44:54.869Z,5.70
2018-07-16T07:47:22.869Z,7.33
2018-07-16T07:49:50.804Z,7.05
2018-07-16T07:52:19.077Z,6.15
2018-07-16T07:54:47.995Z,10.63
2018-07-16T07:57:15.890Z,9.23
2018-07-16T07:59:44.104Z,7.00
2018-07-16T08:02:12.009Z,5.95
2018-07-16T08:04:40.589Z,10.30
2018-07-16T08:07:12.611Z,9.40
2018-07-16T08:09:41.924Z,5.28
2018-07-16T08:12:11.158Z,6.30
2018-07-16T08:14:40.175Z,5.70
2018-07-16T08:17:08.481Z,6.40
2018-07-16T08:19:37.109Z,8.65
2018-07-16T08:22:05.066Z,6.67
2018-07-16T08:24:33.706Z,6.87
2018-07-16T08:27:01.998Z,8.00
2018-07-16T08:29:30.556Z,7.20
2018-07-16T08:31:59.117Z,7.10
2018-07-16T08:34:27.388Z,13.85
2018-07-16T08:36:55.333Z,7.97
2018-07-16T08:39:23.358Z,7.60
2018-07-16T08:41:51.320Z,6.60
2018-07-16T08:44:19.777Z,9.08
2018-07-16T08:46:47.673Z,4.85
2018-07-16T08:49:15.628Z,4.60
2018-07-16T08:51:43.890Z,4.83
2018-07-16T08:54:12.252Z,5.28
2018-07-16T08:56:40.508Z,9.03
2018-07-16T08:59:08.786Z,4.85
2018-07-16T09:01:36.940Z,6.15
2018-07-16T09:04:05.254Z,4.92
2018-07-16T09:06:33.208Z,4.70
2018-07-16T09:09:01.112Z,4.50
2018-07-16T09:11:29.383Z,4.40
2018-07-16T09:13:57.556Z,4.00
2018-07-16T09:16:25.737Z,6.70
2018-07-16T09:18:54.290Z,5.87
2018-07-16T09:21:22.232Z,5.40
2018-07-16T09:23:50.775Z,6.87
2018-07-16T09:26:19.248Z,5.05
2018-07-16T09:28:47.244Z,7.47
2018-07-16T09:31:15.153Z,4.30
2018-07-16T09:33:43.047Z,5.20
2018-07-16T09:36:10.957Z,6.20
2018-07-16T09:38:38.925Z,6.70
2018-07-16T09:41:06.893Z,5.30
2018-07-16T09:43:35.148Z,6.87
2018-07-16T09:46:03.329Z,5.97
2018-07-16T09:48:31.288Z,5.08
2018-07-16T09:50:59.470Z,8.30
2018-07-16T09:53:27.433Z,5.00
2018-07-16T09:55:56.584Z,5.20
2018-07-16T09:58:24.805Z,7.90
2018-07-16T10:00:58.318Z,5.08
2018-07-16T10:03:26.497Z,6.20
2018-07-16T10:05:54.496Z,13.72
2018-07-16T10:08:22.931Z,8.33
2018-07-16T10:10:51.181Z,4.03
2018-07-16T10:13:19.432Z,5.95
2018-07-16T10:15:47.454Z,4.43
2018-07-16T10:18:16.890Z,5.20
2018-07-16T10:20:45.255Z,4.55
2018-07-16T10:23:13.745Z,3.60
2018-07-16T10:25:41.968Z,6.00
2018-07-16T10:28:10.170Z,3.77
2018-07-16T10:30:39.282Z,13.22
2018-07-16T10:33:07.753Z,3.60
2018-07-16T10:35:36.130Z,4.97
2018-07-16T10:38:13.856Z,6.53
2018-07-16T10:40:42.183Z,3.95
2018-07-16T10:43:10.354Z,6.40
2018-07-16T10:45:38.666Z,14.40
2018-07-16T10:48:06.865Z,6.40
2018-07-16T10:50:35.017Z,10.93
2018-07-16T10:53:03.406Z,13.83
2018-07-16T10:55:31.411Z,11.47
2018-07-16T10:57:59.746Z,11.10
2018-07-16T11:00:28.225Z,8.90
2018-07-16T11:02:56.445Z,9.28
2018-07-16T11:05:25.277Z,7.53
2018-07-16T11:07:53.273Z,7.80
2018-07-16T11:10:21.331Z,6.85
2018-07-16T11:12:49.354Z,9.45
2018-07-16T11:15:17.780Z,6.35
2018-07-16T11:17:45.786Z,4.87
2018-07-16T11:20:13.989Z,5.75
2018-07-16T11:22:42.386Z,5.62
2018-07-16T11:25:10.476Z,5.17
2018-07-16T11:27:38.499Z,5.93
2018-07-16T11:30:07.374Z,5.90
2018-07-16T11:32:35.515Z,4.63
2018-07-16T11:35:03.639Z,5.33
2018-07-16T11:37:32.072Z,4.53
2018-07-16T11:40:00.279Z,5.62
2018-07-16T11:42:28.445Z,4.00
2018-07-16T11:44:56.487Z,3.65
2018-07-16T11:47:24.726Z,5.80
2018-07-16T11:49:52.765Z,5.20
2018-07-16T11:52:20.997Z,4.10
2018-07-16T11:54:48.978Z,4.00
2018-07-16T11:57:17.218Z,5.78
2018-07-16T11:59:45.835Z,6.85
2018-07-16T12:02:13.981Z,4.80
2018-07-16T12:04:42.311Z,6.30
2018-07-16T12:07:10.322Z,5.75
2018-07-16T12:09:38.381Z,7.10
2018-07-16T12:12:06.853Z,3.55
2018-07-16T12:14:35.165Z,3.80
2018-07-16T12:17:03.678Z,4.90
2018-07-16T12:19:32.527Z,6.10
2018-07-16T12:22:00.501Z,4.42
2018-07-16T12:24:28.917Z,7.15
2018-07-16T12:26:57.104Z,4.95
2018-07-16T12:29:25.153Z,3.87
2018-07-16T12:31:53.334Z,4.58
2018-07-16T12:34:21.451Z,5.30
2018-07-16T12:36:49.480Z,7.15
2018-07-16T12:39:18.291Z,7.30
2018-07-16T12:41:46.475Z,5.55
2018-07-16T12:44:15.058Z,5.03
2018-07-16T12:46:43.276Z,3.77
2018-07-16T12:49:11.361Z,4.00
2018-07-16T12:51:39.463Z,6.33
2018-07-16T12:54:07.562Z,3.40
2018-07-16T12:57:30.398Z,3.70
2018-07-16T12:59:58.543Z,5.08
2018-07-16T13:02:26.651Z,4.03
2018-07-16T13:04:54.729Z,6.50
2018-07-16T13:07:22.763Z,3.55
2018-07-16T13:09:50.887Z,3.98
2018-07-16T13:12:19.001Z,4.90
2018-07-16T13:14:47.058Z,6.27
2018-07-16T13:17:15.361Z,7.70
2018-07-16T13:19:43.519Z,4.10
2018-07-16T13:22:11.635Z,4.30
2018-07-16T13:24:39.650Z,4.65
2018-07-16T13:27:07.806Z,3.80
2018-07-16T13:29:35.859Z,4.60
2018-07-16T13:32:04.987Z,5.67
2018-07-16T13:34:33.159Z,4.05
2018-07-16T13:37:01.256Z,4.50
2018-07-16T13:39:29.461Z,4.80
2018-07-16T13:41:57.639Z,6.92
2018-07-16T13:44:25.838Z,8.07
2018-07-16T13:46:53.986Z,4.87
2018-07-16T13:49:22.087Z,5.65
2018-07-16T13:51:50.082Z,6.27
2018-07-16T13:54:18.199Z,4.10
2018-07-16T13:56:46.279Z,2.92
2018-07-16T13:59:14.517Z,3.77
2018-07-16T14:01:42.633Z,3.58
2018-07-16T14:04:11.022Z,4.00
2018-07-16T14:06:39.081Z,5.40
2018-07-16T14:09:07.604Z,6.30
2018-07-16T14:11:35.687Z,3.45
2018-07-16T14:14:04.815Z,4.40
2018-07-16T14:16:33.812Z,4.33
2018-07-16T14:19:02.678Z,4.83
2018-07-16T14:21:30.826Z,4.37
2018-07-16T14:23:59.021Z,5.80
2018-07-16T14:26:27.766Z,5.50
2018-07-16T14:28:56.235Z,7.58
2018-07-16T14:31:24.418Z,7.08
2018-07-16T14:33:52.596Z,4.70
2018-07-16T14:36:20.717Z,6.30
2018-07-16T14:38:48.959Z,4.50
2018-07-16T14:41:16.989Z,4.75
2018-07-16T14:43:45.574Z,8.88
2018-07-16T14:46:13.775Z,4.25
2018-07-16T14:48:42.261Z,4.40
2018-07-16T14:51:10.566Z,6.50
2018-07-16T14:53:38.995Z,3.50
2018-07-16T14:56:07.199Z,3.83
2018-07-16T14:58:35.394Z,4.60
2018-07-16T15:01:03.521Z,3.70
2018-07-16T15:03:31.983Z,7.40
2018-07-16T15:06:00.185Z,3.47
2018-07-16T15:08:28.234Z,3.67
2018-07-16T15:10:56.287Z,6.25
2018-07-16T15:13:24.409Z,5.58
2018-07-16T15:15:52.894Z,9.88
2018-07-16T15:18:20.969Z,6.47
2018-07-16T15:20:49.511Z,5.47
2018-07-16T15:23:17.397Z,4.00
2018-07-16T15:25:45.489Z,3.30
2018-07-16T15:28:13.525Z,5.22
2018-07-16T15:30:41.695Z,6.35
2018-07-16T15:33:09.790Z,2.75
2018-07-16T15:35:38.032Z,4.90
2018-07-16T15:38:06.009Z,10.55
2018-07-16T15:40:34.123Z,4.30
2018-07-16T15:43:02.098Z,6.40
2018-07-16T15:45:30.142Z,4.50
2018-07-16T15:47:58.271Z,4.78
2018-07-16T15:50:26.508Z,6.73
2018-07-16T15:52:54.647Z,4.35
2018-07-16T15:55:22.739Z,3.50
2018-07-16T15:57:50.841Z,4.20
2018-07-16T16:00:18.886Z,7.60
2018-07-16T16:02:47.237Z,9.00
2018-07-16T16:05:15.331Z,4.80
2018-07-16T16:07:43.522Z,5.03
2018-07-16T16:10:11.681Z,5.30
2018-07-16T16:12:39.795Z,8.70
2018-07-16T16:15:08.182Z,5.87
2018-07-16T16:17:36.378Z,5.17
2018-07-16T16:20:04.990Z,6.47
2018-07-16T16:22:33.055Z,3.83
2018-07-16T16:25:01.641Z,6.80
2018-07-16T16:27:29.768Z,5.43
2018-07-16T16:29:57.787Z,4.10
2018-07-16T16:32:25.871Z,5.30
2018-07-16T16:34:53.909Z,2.60
2018-07-16T16:37:22.036Z,3.50
2018-07-16T16:39:50.218Z,4.20
2018-07-16T16:42:18.455Z,5.47
2018-07-16T16:44:46.619Z,4.85
2018-07-16T16:47:14.825Z,5.62
2018-07-16T16:49:43.023Z,3.70
2018-07-16T16:52:11.061Z,6.95
2018-07-16T16:54:39.278Z,4.37
2018-07-16T16:57:07.466Z,2.75
2018-07-16T16:59:35.481Z,2.95
2018-07-16T17:02:03.635Z,3.05
2018-07-16T17:04:31.697Z,3.77
2018-07-16T17:06:59.698Z,4.42
2018-07-16T17:09:27.774Z,6.30
2018-07-16T17:11:56.226Z,4.90
2018-07-16T17:14:24.203Z,3.80
2018-07-16T17:16:52.259Z,5.85
2018-07-16T17:19:20.456Z,3.72
2018-07-16T17:21:48.803Z,5.73
2018-07-16T17:24:16.887Z,4.25
2018-07-16T17:26:44.972Z,3.17
2018-07-16T17:29:13.234Z,7.62
2018-07-16T17:31:41.562Z,2.90
2018-07-16T17:34:09.710Z,7.17
2018-07-16T17:36:38.135Z,4.80
2018-07-16T17:39:07.514Z,4.00
2018-07-16T17:41:35.666Z,4.25
2018-07-16T17:44:04.061Z,4.60
2018-07-16T17:46:32.580Z,5.53
2018-07-16T17:49:00.761Z,7.17
2018-07-16T17:51:28.913Z,6.35
2018-07-16T17:53:57.006Z,3.87
2018-07-16T17:56:25.433Z,3.65
2018-07-16T17:58:53.600Z,9.25
2018-07-16T18:01:21.856Z,5.00
2018-07-16T18:03:49.966Z,5.35
2018-07-16T18:06:17.982Z,4.40
2018-07-16T18:08:46.009Z,5.00
2018-07-16T18:11:14.143Z,6.17
2018-07-16T18:13:42.850Z,4.33
2018-07-16T18:16:10.938Z,5.05
2018-07-16T18:18:39.194Z,4.97
2018-07-16T18:21:07.490Z,6.10
2018-07-16T18:23:35.966Z,6.35
2018-07-16T18:26:04.754Z,5.97
2018-07-16T18:28:32.879Z,4.67
2018-07-16T18:31:01.443Z,11.05
2018-07-16T18:33:30.176Z,6.45
2018-07-16T18:35:58.473Z,9.08
2018-07-16T18:38:26.942Z,6.28
2018-07-16T18:40:55.645Z,5.85
2018-07-16T18:43:24.124Z,5.83
2018-07-16T18:45:52.255Z,7.97
2018-07-16T18:48:20.430Z,8.10
2018-07-16T18:50:48.429Z,10.58
2018-07-16T18:53:16.501Z,8.40
2018-07-16T18:55:44.839Z,6.53
2018-07-16T18:58:13.761Z,11.80
2018-07-16T19:00:42.199Z,8.08
2018-07-16T19:03:10.344Z,8.48
2018-07-16T19:05:38.618Z,6.80
2018-07-16T19:08:06.686Z,10.40
2018-07-16T19:10:34.859Z,8.40
2018-07-16T19:13:03.137Z,10.60
2018-07-16T19:15:31.209Z,13.00
2018-07-16T19:17:59.489Z,7.47
2018-07-16T19:20:27.825Z,8.50
2018-07-16T19:22:56.066Z,8.53
2018-07-16T19:25:24.639Z,11.40
2018-07-16T19:27:52.675Z,9.10
2018-07-16T19:30:20.877Z,10.00
2018-07-16T19:32:49.163Z,11.53
2018-07-16T19:35:17.267Z,11.45
2018-07-16T19:37:45.707Z,10.75
2018-07-16T19:40:13.774Z,12.07
2018-07-16T19:42:41.997Z,12.20
2018-07-16T19:45:10.354Z,13.93
2018-07-16T19:47:38.411Z,15.35
2018-07-16T19:50:07.009Z,14.00
2018-07-16T19:52:35.573Z,10.10
2018-07-16T19:55:04.142Z,12.25
2018-07-16T19:57:32.443Z,11.00
2018-07-16T20:00:00.662Z,11.80
2018-07-16T20:02:29.047Z,10.10
2018-07-16T20:04:58.513Z,11.33
2018-07-16T20:07:27.206Z,8.10
2018-07-16T20:09:55.759Z,9.40
2018-07-16T20:12:30.394Z,11.20
2018-07-16T20:14:59.212Z,10.87
2018-07-16T20:17:27.849Z,11.05
2018-07-16T20:19:56.768Z,12.43
2018-07-16T20:22:25.559Z,11.33
2018-07-16T20:24:53.734Z,10.37
2018-07-16T20:27:22.202Z,13.00
2018-07-16T20:29:50.761Z,13.78
2018-07-16T20:32:19.142Z,12.23
2018-07-16T20:34:48.058Z,12.28
2018-07-16T20:37:16.073Z,9.95
2018-07-16T20:39:44.814Z,11.70
2018-07-16T20:42:13.701Z,12.78
2018-07-16T20:44:42.338Z,16.90
2018-07-16T20:47:10.774Z,13.70
2018-07-16T20:49:39.684Z,13.80
2018-07-16T20:52:08.356Z,10.82
2018-07-16T20:54:36.496Z,12.28
2018-07-16T20:57:04.767Z,10.10
2018-07-16T20:59:33.177Z,11.80
2018-07-16T21:02:01.436Z,11.85
2018-07-16T21:04:29.783Z,12.70
2018-07-16T21:06:58.084Z,15.35
2018-07-16T21:09:26.603Z,12.43
2018-07-16T21:11:54.671Z,15.23
2018-07-16T21:14:22.917Z,11.37
2018-07-16T21:16:51.253Z,14.83
2018-07-16T21:19:19.479Z,12.47
2018-07-16T21:21:47.882Z,14.00
2018-07-16T21:24:17.383Z,10.80
2018-07-16T21:26:45.663Z,15.78
2018-07-16T21:29:14.121Z,14.80
2018-07-16T21:31:42.622Z,15.23
2018-07-16T21:34:11.106Z,15.03
2018-07-16T21:36:39.175Z,9.05
2018-07-16T21:39:08.126Z,12.20
2018-07-16T21:41:36.424Z,12.55
2018-07-16T21:44:04.864Z,10.65
2018-07-16T21:46:32.984Z,12.80
2018-07-16T21:49:01.303Z,11.33
2018-07-16T21:51:29.860Z,12.10
2018-07-16T21:53:58.198Z,12.50
2018-07-16T21:56:26.719Z,14.55
2018-07-16T21:58:54.705Z,11.10
2018-07-16T22:01:22.897Z,13.53
2018-07-16T22:03:51.143Z,12.28
2018-07-16T22:06:19.825Z,9.25
2018-07-16T22:08:48.619Z,14.30
2018-07-16T22:11:17.251Z,9.53
2018-07-16T22:13:45.998Z,9.70
2018-07-16T22:16:14.523Z,9.45
2018-07-16T22:18:42.750Z,11.00
2018-07-16T22:21:11.225Z,11.12
2018-07-16T22:23:39.398Z,10.72
2018-07-16T22:26:08.077Z,12.33
2018-07-16T22:28:36.318Z,10.57
2018-07-16T22:31:04.854Z,9.40
2018-07-16T22:33:33.147Z,9.40
2018-07-16T22:36:01.342Z,12.47
2018-07-16T22:38:29.887Z,9.58
2018-07-16T22:40:58.660Z,10.70
2018-07-16T22:43:27.528Z,9.60
2018-07-16T22:45:57.401Z,11.73
2018-07-16T22:48:26.549Z,9.08
2018-07-16T22:50:55.386Z,9.70
2018-07-16T22:53:24.451Z,8.20
2018-07-16T22:55:52.875Z,9.67
2018-07-16T22:58:21.328Z,10.43
2018-07-16T23:00:49.605Z,12.10
2018-07-16T23:03:17.789Z,9.78
2018-07-16T23:05:46.142Z,9.33
2018-07-16T23:08:15.095Z,12.25
2018-07-16T23:10:43.325Z,13.62
2018-07-16T23:13:11.325Z,10.00
2018-07-16T23:15:39.596Z,9.43
2018-07-16T23:18:08.090Z,8.97
2018-07-16T23:20:36.475Z,8.80
2018-07-16T23:23:04.558Z,10.25
2018-07-16T23:25:32.717Z,10.82
2018-07-16T23:28:00.930Z,9.28
2018-07-16T23:30:29.533Z,10.18
2018-07-16T23:32:57.917Z,14.78
2018-07-16T23:35:26.394Z,11.60
2018-07-16T23:37:54.623Z,11.37
2018-07-16T23:40:23.265Z,9.50
2018-07-16T23:42:51.847Z,7.72
2018-07-16T23:45:20.294Z,8.25
2018-07-16T23:47:48.560Z,8.07
2018-07-16T23:50:16.841Z,7.60
2018-07-16T23:52:45.708Z,10.40
2018-07-16T23:55:13.716Z,10.55
2018-07-16T23:57:42.108Z,10.70
